sensor_id;sensor_type;location;lat;lon;timestamp;temperature;humidity
41060;DHT22;26811;53.160;8.202;2022-09-09T00:02:28;14.10;99.90
41060;DHT22;26811;53.160;8.202;2022-09-09T00:07:40;14.20;99.90
41060;DHT22;26811;53.160;8.202;2022-09-09T00:12:57;14.10;99.90
41060;DHT22;26811;53.160;8.202;2022-09-09T00:18:03;14.20;99.90
41060;DHT22;26811;53.160;8.202;2022-09-09T00:28:19;14.20;99.90
41060;DHT22;26811;53.160;8.202;2022-09-09T00:33:23;14.20;99.90
41060;DHT22;26811;53.160;8.202;2022-09-09T00:38:31;14.20;99.90
41060;DHT22;26811;53.160;8.202;2022-09-09T00:43:38;14.30;99.90
41060;DHT22;26811;53.160;8.202;2022-09-09T01:04:42;14.30;99.90
41060;DHT22;26811;53.160;8.202;2022-09-09T01:09:52;14.30;99.90
41060;DHT22;26811;53.160;8.202;2022-09-09T01:20:17;14.20;99.90
41060;DHT22;26811;53.160;8.202;2022-09-09T01:30:26;14.10;99.90
41060;DHT22;26811;53.160;8.202;2022-09-09T01:35:39;14.10;99.90
41060;DHT22;26811;53.160;8.202;2022-09-09T01:40:42;14.00;99.90
41060;DHT22;26811;53.160;8.202;2022-09-09T01:45:44;14.00;99.90
41060;DHT22;26811;53.160;8.202;2022-09-09T01:50:46;14.00;99.90
41060;DHT22;26811;53.160;8.202;2022-09-09T02:01:27;14.10;99.90
41060;DHT22;26811;53.160;8.202;2022-09-09T02:06:38;14.10;99.90
41060;DHT22;26811;53.160;8.202;2022-09-09T02:11:40;14.10;99.90
41060;DHT22;26811;53.160;8.202;2022-09-09T02:16:55;14.20;99.90
41060;DHT22;26811;53.160;8.202;2022-09-09T02:21:59;14.10;99.90
41060;DHT22;26811;53.160;8.202;2022-09-09T02:27:03;14.00;99.90
41060;DHT22;26811;53.160;8.202;2022-09-09T02:32:12;14.00;99.90
41060;DHT22;26811;53.160;8.202;2022-09-09T02:37:18;14.00;99.90
41060;DHT22;26811;53.160;8.202;2022-09-09T02:42:19;14.00;99.90
41060;DHT22;26811;53.160;8.202;2022-09-09T02:52:40;14.00;99.90
41060;DHT22;26811;53.160;8.202;2022-09-09T02:57:43;14.00;99.90
41060;DHT22;26811;53.160;8.202;2022-09-09T03:02:47;14.00;99.90
41060;DHT22;26811;53.160;8.202;2022-09-09T03:07:47;14.10;99.90
41060;DHT22;26811;53.160;8.202;2022-09-09T03:12:49;14.00;99.90
41060;DHT22;26811;53.160;8.202;2022-09-09T03:17:50;14.10;99.90
41060;DHT22;26811;53.160;8.202;2022-09-09T03:22:52;14.10;99.90
41060;DHT22;26811;53.160;8.202;2022-09-09T03:27:54;14.20;99.90
41060;DHT22;26811;53.160;8.202;2022-09-09T03:32:55;14.20;99.90
41060;DHT22;26811;53.160;8.202;2022-09-09T03:37:56;14.20;99.90
41060;DHT22;26811;53.160;8.202;2022-09-09T03:42:56;14.10;99.90
41060;DHT22;26811;53.160;8.202;2022-09-09T03:47:57;14.10;99.90
41060;DHT22;26811;53.160;8.202;2022-09-09T03:52:57;14.00;99.90
41060;DHT22;26811;53.160;8.202;2022-09-09T03:57:58;14.00;99.90
41060;DHT22;26811;53.160;8.202;2022-09-09T04:03:00;13.90;99.90
41060;DHT22;26811;53.160;8.202;2022-09-09T04:08:01;13.90;99.90
41060;DHT22;26811;53.160;8.202;2022-09-09T04:13:03;13.90;99.90
41060;DHT22;26811;53.160;8.202;2022-09-09T04:18:03;13.90;99.90
41060;DHT22;26811;53.160;8.202;2022-09-09T04:23:04;13.90;99.90
41060;DHT22;26811;53.160;8.202;2022-09-09T04:28:05;13.90;99.90
41060;DHT22;26811;53.160;8.202;2022-09-09T04:33:07;13.90;99.90
41060;DHT22;26811;53.160;8.202;2022-09-09T04:38:07;13.80;99.90
41060;DHT22;26811;53.160;8.202;2022-09-09T04:43:09;13.80;99.90
41060;DHT22;26811;53.160;8.202;2022-09-09T04:48:10;13.80;99.90
41060;DHT22;26811;53.160;8.202;2022-09-09T04:53:11;13.70;99.90
41060;DHT22;26811;53.160;8.202;2022-09-09T04:58:11;13.70;99.90
41060;DHT22;26811;53.160;8.202;2022-09-09T05:03:12;13.60;99.90
41060;DHT22;26811;53.160;8.202;2022-09-09T05:08:12;13.60;99.90
41060;DHT22;26811;53.160;8.202;2022-09-09T05:13:13;13.60;99.90
41060;DHT22;26811;53.160;8.202;2022-09-09T05:18:14;13.50;99.90
41060;DHT22;26811;53.160;8.202;2022-09-09T05:23:14;13.60;99.90
41060;DHT22;26811;53.160;8.202;2022-09-09T05:28:15;13.60;99.90
41060;DHT22;26811;53.160;8.202;2022-09-09T05:33:15;13.70;99.90
41060;DHT22;26811;53.160;8.202;2022-09-09T05:38:16;13.80;99.90
41060;DHT22;26811;53.160;8.202;2022-09-09T05:43:21;14.00;99.90
41060;DHT22;26811;53.160;8.202;2022-09-09T05:48:22;14.10;99.90
41060;DHT22;26811;53.160;8.202;2022-09-09T05:53:23;14.30;99.90
41060;DHT22;26811;53.160;8.202;2022-09-09T05:58:24;14.50;99.90
41060;DHT22;26811;53.160;8.202;2022-09-09T06:03:24;14.90;99.90
41060;DHT22;26811;53.160;8.202;2022-09-09T06:08:25;15.20;99.90
41060;DHT22;26811;53.160;8.202;2022-09-09T06:13:25;15.40;99.90
41060;DHT22;26811;53.160;8.202;2022-09-09T06:18:26;15.60;99.90
41060;DHT22;26811;53.160;8.202;2022-09-09T06:23:27;15.90;99.90
41060;DHT22;26811;53.160;8.202;2022-09-09T06:28:28;16.10;99.90
41060;DHT22;26811;53.160;8.202;2022-09-09T06:33:33;16.20;99.90
41060;DHT22;26811;53.160;8.202;2022-09-09T06:38:35;16.30;99.90
41060;DHT22;26811;53.160;8.202;2022-09-09T06:43:36;16.40;99.90
41060;DHT22;26811;53.160;8.202;2022-09-09T06:48:38;16.30;99.90
41060;DHT22;26811;53.160;8.202;2022-09-09T06:53:39;16.20;99.90
41060;DHT22;26811;53.160;8.202;2022-09-09T06:58:41;16.20;99.90
41060;DHT22;26811;53.160;8.202;2022-09-09T07:03:47;16.20;99.90
41060;DHT22;26811;53.160;8.202;2022-09-09T07:09:03;16.30;99.90
41060;DHT22;26811;53.160;8.202;2022-09-09T07:14:04;16.80;99.90
41060;DHT22;26811;53.160;8.202;2022-09-09T07:19:05;18.20;99.90
41060;DHT22;26811;53.160;8.202;2022-09-09T07:24:05;20.90;99.90
41060;DHT22;26811;53.160;8.202;2022-09-09T07:29:08;22.90;99.90
41060;DHT22;26811;53.160;8.202;2022-09-09T07:34:09;23.70;99.90
41060;DHT22;26811;53.160;8.202;2022-09-09T07:39:12;24.10;99.90
41060;DHT22;26811;53.160;8.202;2022-09-09T07:44:20;24.10;99.90
41060;DHT22;26811;53.160;8.202;2022-09-09T07:49:24;23.50;99.90
41060;DHT22;26811;53.160;8.202;2022-09-09T07:54:25;23.10;99.90
41060;DHT22;26811;53.160;8.202;2022-09-09T07:59:26;23.80;99.90
41060;DHT22;26811;53.160;8.202;2022-09-09T08:04:28;24.50;99.90
41060;DHT22;26811;53.160;8.202;2022-09-09T08:09:28;24.50;99.90
41060;DHT22;26811;53.160;8.202;2022-09-09T08:14:29;24.10;99.90
41060;DHT22;26811;53.160;8.202;2022-09-09T08:19:30;24.40;99.90
41060;DHT22;26811;53.160;8.202;2022-09-09T08:24:31;24.30;99.90
41060;DHT22;26811;53.160;8.202;2022-09-09T08:29:31;24.20;99.90
41060;DHT22;26811;53.160;8.202;2022-09-09T08:34:32;24.10;99.90
41060;DHT22;26811;53.160;8.202;2022-09-09T08:39:32;23.80;99.90
41060;DHT22;26811;53.160;8.202;2022-09-09T08:55:42;23.40;99.90
41060;DHT22;26811;53.160;8.202;2022-09-09T09:11:24;22.00;99.90
41060;DHT22;26811;53.160;8.202;2022-09-09T09:16:40;22.70;99.90
41060;DHT22;26811;53.160;8.202;2022-09-09T09:27:14;21.60;99.90
41060;DHT22;26811;53.160;8.202;2022-09-09T09:32:18;21.50;99.90
41060;DHT22;26811;53.160;8.202;2022-09-09T09:37:30;21.80;99.90
41060;DHT22;26811;53.160;8.202;2022-09-09T09:42:31;22.20;99.90
41060;DHT22;26811;53.160;8.202;2022-09-09T09:47:32;22.30;99.90
41060;DHT22;26811;53.160;8.202;2022-09-09T09:52:32;22.60;99.90
41060;DHT22;26811;53.160;8.202;2022-09-09T09:57:36;22.50;99.90
41060;DHT22;26811;53.160;8.202;2022-09-09T10:02:39;22.70;99.90
41060;DHT22;26811;53.160;8.202;2022-09-09T10:07:41;22.50;99.90
41060;DHT22;26811;53.160;8.202;2022-09-09T10:13:15;22.20;99.90
41060;DHT22;26811;53.160;8.202;2022-09-09T10:24:00;22.40;99.90
41060;DHT22;26811;53.160;8.202;2022-09-09T10:34:55;22.30;99.90
41060;DHT22;26811;53.160;8.202;2022-09-09T10:51:42;22.70;99.90
41060;DHT22;26811;53.160;8.202;2022-09-09T10:56:52;22.70;99.90
41060;DHT22;26811;53.160;8.202;2022-09-09T11:01:58;22.60;99.90
41060;DHT22;26811;53.160;8.202;2022-09-09T11:07:05;22.30;99.90
41060;DHT22;26811;53.160;8.202;2022-09-09T11:12:10;22.20;99.90
41060;DHT22;26811;53.160;8.202;2022-09-09T11:17:15;22.30;99.90
41060;DHT22;26811;53.160;8.202;2022-09-09T11:22:30;22.50;99.90
41060;DHT22;26811;53.160;8.202;2022-09-09T11:43:12;23.20;99.90
41060;DHT22;26811;53.160;8.202;2022-09-09T11:48:33;23.00;99.90
41060;DHT22;26811;53.160;8.202;2022-09-09T11:53:36;22.70;99.90
41060;DHT22;26811;53.160;8.202;2022-09-09T11:59:04;22.40;99.90
41060;DHT22;26811;53.160;8.202;2022-09-09T12:09:27;21.60;99.90
41060;DHT22;26811;53.160;8.202;2022-09-09T12:14:56;21.20;99.90
41060;DHT22;26811;53.160;8.202;2022-09-09T12:20:18;21.20;99.90
41060;DHT22;26811;53.160;8.202;2022-09-09T12:30:41;20.80;99.90
41060;DHT22;26811;53.160;8.202;2022-09-09T12:35:47;20.70;99.90
41060;DHT22;26811;53.160;8.202;2022-09-09T12:40:58;20.60;99.90
41060;DHT22;26811;53.160;8.202;2022-09-09T12:46:03;20.60;99.90
41060;DHT22;26811;53.160;8.202;2022-09-09T12:51:19;20.50;99.90
41060;DHT22;26811;53.160;8.202;2022-09-09T12:56:24;20.50;99.90
41060;DHT22;26811;53.160;8.202;2022-09-09T13:01:31;20.30;99.90
41060;DHT22;26811;53.160;8.202;2022-09-09T13:06:33;20.10;99.90
41060;DHT22;26811;53.160;8.202;2022-09-09T13:11:47;20.10;99.90
41060;DHT22;26811;53.160;8.202;2022-09-09T13:17:00;20.00;99.90
41060;DHT22;26811;53.160;8.202;2022-09-09T13:22:12;20.10;99.90
41060;DHT22;26811;53.160;8.202;2022-09-09T13:27:35;20.20;99.90
41060;DHT22;26811;53.160;8.202;2022-09-09T13:32:38;20.40;99.90
41060;DHT22;26811;53.160;8.202;2022-09-09T13:37:40;20.40;99.90
41060;DHT22;26811;53.160;8.202;2022-09-09T13:42:44;20.30;99.90
41060;DHT22;26811;53.160;8.202;2022-09-09T13:47:45;20.20;99.90
41060;DHT22;26811;53.160;8.202;2022-09-09T13:52:47;20.20;99.90
41060;DHT22;26811;53.160;8.202;2022-09-09T13:57:57;20.20;99.90
41060;DHT22;26811;53.160;8.202;2022-09-09T14:02:57;20.40;99.90
41060;DHT22;26811;53.160;8.202;2022-09-09T14:07:58;20.60;99.90
41060;DHT22;26811;53.160;8.202;2022-09-09T14:13:00;20.40;99.90
41060;DHT22;26811;53.160;8.202;2022-09-09T14:18:01;20.00;99.90
41060;DHT22;26811;53.160;8.202;2022-09-09T14:23:02;19.70;99.90
41060;DHT22;26811;53.160;8.202;2022-09-09T14:28:03;19.70;99.90
41060;DHT22;26811;53.160;8.202;2022-09-09T14:33:03;19.70;99.90
41060;DHT22;26811;53.160;8.202;2022-09-09T14:38:05;19.80;99.90
41060;DHT22;26811;53.160;8.202;2022-09-09T14:43:05;19.90;99.90
41060;DHT22;26811;53.160;8.202;2022-09-09T14:48:06;19.80;99.90
41060;DHT22;26811;53.160;8.202;2022-09-09T14:53:07;19.80;99.90
41060;DHT22;26811;53.160;8.202;2022-09-09T14:58:09;19.80;99.90
41060;DHT22;26811;53.160;8.202;2022-09-09T15:03:09;19.50;99.90
41060;DHT22;26811;53.160;8.202;2022-09-09T15:08:11;19.50;99.90
41060;DHT22;26811;53.160;8.202;2022-09-09T15:13:11;19.40;99.90
41060;DHT22;26811;53.160;8.202;2022-09-09T15:18:12;19.40;99.90
41060;DHT22;26811;53.160;8.202;2022-09-09T15:23:14;19.40;99.90
41060;DHT22;26811;53.160;8.202;2022-09-09T15:28:14;19.40;99.90
41060;DHT22;26811;53.160;8.202;2022-09-09T15:33:15;19.40;99.90
41060;DHT22;26811;53.160;8.202;2022-09-09T15:38:16;19.40;99.90
41060;DHT22;26811;53.160;8.202;2022-09-09T15:43:17;19.50;99.90
41060;DHT22;26811;53.160;8.202;2022-09-09T15:48:18;19.40;99.90
41060;DHT22;26811;53.160;8.202;2022-09-09T15:53:19;19.40;99.90
41060;DHT22;26811;53.160;8.202;2022-09-09T15:58:20;19.40;99.90
41060;DHT22;26811;53.160;8.202;2022-09-09T16:03:20;19.40;99.90
41060;DHT22;26811;53.160;8.202;2022-09-09T16:08:21;19.50;99.90
41060;DHT22;26811;53.160;8.202;2022-09-09T16:13:22;19.50;99.90
41060;DHT22;26811;53.160;8.202;2022-09-09T16:18:22;19.60;99.90
41060;DHT22;26811;53.160;8.202;2022-09-09T16:23:23;19.60;99.90
41060;DHT22;26811;53.160;8.202;2022-09-09T16:28:24;19.50;99.90
41060;DHT22;26811;53.160;8.202;2022-09-09T16:33:25;19.40;99.90
41060;DHT22;26811;53.160;8.202;2022-09-09T16:38:26;19.20;99.90
41060;DHT22;26811;53.160;8.202;2022-09-09T16:43:27;19.00;99.90
41060;DHT22;26811;53.160;8.202;2022-09-09T16:48:33;19.00;99.90
41060;DHT22;26811;53.160;8.202;2022-09-09T16:53:34;19.00;99.90
41060;DHT22;26811;53.160;8.202;2022-09-09T16:58:35;18.90;99.90
41060;DHT22;26811;53.160;8.202;2022-09-09T17:03:35;18.90;99.90
41060;DHT22;26811;53.160;8.202;2022-09-09T17:08:38;18.80;99.90
41060;DHT22;26811;53.160;8.202;2022-09-09T17:13:43;18.60;99.90
41060;DHT22;26811;53.160;8.202;2022-09-09T17:18:43;18.10;99.90
41060;DHT22;26811;53.160;8.202;2022-09-09T17:23:45;17.60;99.90
41060;DHT22;26811;53.160;8.202;2022-09-09T17:28:45;17.30;99.90
41060;DHT22;26811;53.160;8.202;2022-09-09T17:33:51;16.90;99.90
41060;DHT22;26811;53.160;8.202;2022-09-09T17:38:56;16.60;99.90
41060;DHT22;26811;53.160;8.202;2022-09-09T17:43:57;16.50;99.90
41060;DHT22;26811;53.160;8.202;2022-09-09T17:49:00;16.30;99.90
41060;DHT22;26811;53.160;8.202;2022-09-09T17:54:08;16.20;99.90
41060;DHT22;26811;53.160;8.202;2022-09-09T17:59:15;16.00;99.90
41060;DHT22;26811;53.160;8.202;2022-09-09T18:04:17;15.90;99.90
41060;DHT22;26811;53.160;8.202;2022-09-09T18:09:23;15.80;99.90
41060;DHT22;26811;53.160;8.202;2022-09-09T18:14:27;15.70;99.90
41060;DHT22;26811;53.160;8.202;2022-09-09T18:19:31;15.60;99.90
41060;DHT22;26811;53.160;8.202;2022-09-09T18:24:32;15.50;99.90
41060;DHT22;26811;53.160;8.202;2022-09-09T18:29:33;15.50;99.90
41060;DHT22;26811;53.160;8.202;2022-09-09T18:34:33;15.30;99.90
41060;DHT22;26811;53.160;8.202;2022-09-09T18:39:34;15.30;99.90
41060;DHT22;26811;53.160;8.202;2022-09-09T18:44:35;15.20;99.90
41060;DHT22;26811;53.160;8.202;2022-09-09T18:49:36;15.00;99.90
41060;DHT22;26811;53.160;8.202;2022-09-09T18:54:37;15.00;99.90
41060;DHT22;26811;53.160;8.202;2022-09-09T18:59:37;14.90;99.90
41060;DHT22;26811;53.160;8.202;2022-09-09T19:04:38;14.80;99.90
41060;DHT22;26811;53.160;8.202;2022-09-09T19:09:38;14.80;99.90
41060;DHT22;26811;53.160;8.202;2022-09-09T19:14:39;14.80;99.90
41060;DHT22;26811;53.160;8.202;2022-09-09T19:19:39;14.80;99.90
41060;DHT22;26811;53.160;8.202;2022-09-09T19:24:41;14.70;99.90
41060;DHT22;26811;53.160;8.202;2022-09-09T19:29:43;14.70;99.90
41060;DHT22;26811;53.160;8.202;2022-09-09T19:34:44;14.60;99.90
41060;DHT22;26811;53.160;8.202;2022-09-09T19:39:46;14.50;99.90
41060;DHT22;26811;53.160;8.202;2022-09-09T19:44:46;14.50;99.90
41060;DHT22;26811;53.160;8.202;2022-09-09T19:49:47;14.50;99.90
41060;DHT22;26811;53.160;8.202;2022-09-09T19:54:47;14.50;99.90
41060;DHT22;26811;53.160;8.202;2022-09-09T19:59:48;14.50;99.90
41060;DHT22;26811;53.160;8.202;2022-09-09T20:04:49;14.50;99.90
41060;DHT22;26811;53.160;8.202;2022-09-09T20:09:49;14.50;99.90
41060;DHT22;26811;53.160;8.202;2022-09-09T20:14:52;14.50;99.90
41060;DHT22;26811;53.160;8.202;2022-09-09T20:19:54;14.60;99.90
41060;DHT22;26811;53.160;8.202;2022-09-09T20:24:54;14.70;99.90
41060;DHT22;26811;53.160;8.202;2022-09-09T20:29:54;14.80;99.90
41060;DHT22;26811;53.160;8.202;2022-09-09T20:34:55;14.80;99.90
41060;DHT22;26811;53.160;8.202;2022-09-09T20:39:55;14.90;99.90
41060;DHT22;26811;53.160;8.202;2022-09-09T20:44:56;14.90;99.90
41060;DHT22;26811;53.160;8.202;2022-09-09T20:49:57;14.90;99.90
41060;DHT22;26811;53.160;8.202;2022-09-09T20:54:59;14.80;99.90
41060;DHT22;26811;53.160;8.202;2022-09-09T21:00:00;14.80;99.90
41060;DHT22;26811;53.160;8.202;2022-09-09T21:05:00;14.80;99.90
41060;DHT22;26811;53.160;8.202;2022-09-09T21:10:01;14.70;99.90
41060;DHT22;26811;53.160;8.202;2022-09-09T21:15:02;14.70;99.90
41060;DHT22;26811;53.160;8.202;2022-09-09T21:20:03;14.60;99.90
41060;DHT22;26811;53.160;8.202;2022-09-09T21:25:06;14.60;99.90
41060;DHT22;26811;53.160;8.202;2022-09-09T21:30:07;14.50;99.90
41060;DHT22;26811;53.160;8.202;2022-09-09T21:35:08;14.50;99.90
41060;DHT22;26811;53.160;8.202;2022-09-09T21:40:11;14.50;99.90
41060;DHT22;26811;53.160;8.202;2022-09-09T21:45:12;14.40;99.90
41060;DHT22;26811;53.160;8.202;2022-09-09T21:50:14;14.40;99.90
41060;DHT22;26811;53.160;8.202;2022-09-09T21:55:15;14.40;99.90
41060;DHT22;26811;53.160;8.202;2022-09-09T22:00:15;14.40;99.90
41060;DHT22;26811;53.160;8.202;2022-09-09T22:05:17;14.40;99.90
41060;DHT22;26811;53.160;8.202;2022-09-09T22:10:19;14.40;99.90
41060;DHT22;26811;53.160;8.202;2022-09-09T22:15:20;14.40;99.90
41060;DHT22;26811;53.160;8.202;2022-09-09T22:20:21;14.40;99.90
41060;DHT22;26811;53.160;8.202;2022-09-09T22:25:21;14.40;99.90
41060;DHT22;26811;53.160;8.202;2022-09-09T22:30:22;14.40;99.90
41060;DHT22;26811;53.160;8.202;2022-09-09T22:35:23;14.40;99.90
41060;DHT22;26811;53.160;8.202;2022-09-09T22:40:23;14.50;99.90
41060;DHT22;26811;53.160;8.202;2022-09-09T22:45:24;14.60;99.90
41060;DHT22;26811;53.160;8.202;2022-09-09T22:50:25;14.70;99.90
41060;DHT22;26811;53.160;8.202;2022-09-09T22:55:27;14.70;99.90
41060;DHT22;26811;53.160;8.202;2022-09-09T23:00:27;14.80;99.90
41060;DHT22;26811;53.160;8.202;2022-09-09T23:05:28;14.80;99.90
41060;DHT22;26811;53.160;8.202;2022-09-09T23:10:29;14.80;99.90
41060;DHT22;26811;53.160;8.202;2022-09-09T23:15:32;14.80;99.90
41060;DHT22;26811;53.160;8.202;2022-09-09T23:20:32;14.70;99.90
41060;DHT22;26811;53.160;8.202;2022-09-09T23:25:34;14.70;99.90
41060;DHT22;26811;53.160;8.202;2022-09-09T23:30:40;14.80;99.90
41060;DHT22;26811;53.160;8.202;2022-09-09T23:35:41;14.70;99.90
41060;DHT22;26811;53.160;8.202;2022-09-09T23:40:41;14.80;99.90
41060;DHT22;26811;53.160;8.202;2022-09-09T23:45:44;14.80;99.90
41060;DHT22;26811;53.160;8.202;2022-09-09T23:50:46;14.90;99.90
41060;DHT22;26811;53.160;8.202;2022-09-09T23:55:49;14.90;99.90
